createdAt,value
2022-11-12T00:00:55.203Z,5.03
2022-11-12T00:03:22.949Z,3.42
2022-11-12T00:05:51.389Z,3.97
2022-11-12T00:08:19.047Z,4.20
2022-11-12T00:10:46.766Z,3.22
2022-11-12T00:13:14.249Z,3.25
2022-11-12T00:15:41.862Z,3.00
2022-11-12T00:18:10.777Z,2.65
2022-11-12T00:20:38.329Z,2.88
2022-11-12T00:23:05.857Z,3.35
2022-11-12T00:25:33.622Z,3.58
2022-11-12T00:28:04.615Z,3.50
2022-11-12T00:30:32.121Z,4.25
2022-11-12T00:33:02.500Z,3.20
2022-11-12T00:35:31.953Z,3.67
2022-11-12T00:38:00.483Z,4.28
2022-11-12T00:40:28.200Z,3.88
2022-11-12T00:42:55.628Z,4.45
2022-11-12T00:45:23.084Z,4.30
2022-11-12T00:47:50.593Z,3.92
2022-11-12T00:50:18.163Z,4.90
2022-11-12T00:52:47.001Z,4.70
2022-11-12T00:55:14.514Z,5.18
2022-11-12T00:57:42.007Z,4.05
2022-11-12T01:00:10.179Z,4.30
2022-11-12T01:02:43.264Z,4.57
2022-11-12T01:05:12.831Z,3.85
2022-11-12T01:07:41.400Z,4.55
2022-11-12T01:10:11.429Z,4.72
2022-11-12T01:12:38.949Z,4.28
2022-11-12T01:15:07.102Z,4.47
2022-11-12T01:17:34.847Z,4.75
2022-11-12T01:20:02.321Z,4.72
2022-11-12T01:22:29.836Z,4.78
2022-11-12T01:24:57.285Z,4.85
2022-11-12T01:27:26.191Z,4.90
2022-11-12T01:29:53.712Z,4.40
2022-11-12T01:32:21.254Z,4.13
2022-11-12T01:34:48.729Z,5.35
2022-11-12T01:37:16.269Z,5.40
2022-11-12T01:39:43.746Z,5.22
2022-11-12T01:42:11.386Z,4.70
2022-11-12T01:44:43.305Z,5.13
2022-11-12T01:47:14.369Z,4.55
2022-11-12T01:49:50.583Z,5.43
2022-11-12T01:52:22.418Z,4.88
2022-11-12T01:54:51.020Z,4.35
2022-11-12T01:57:19.931Z,5.07
2022-11-12T01:59:50.407Z,4.43
2022-11-12T02:02:18.384Z,4.53
2022-11-12T02:04:46.656Z,4.97
2022-11-12T02:07:14.365Z,4.63
2022-11-12T02:09:42.473Z,4.88
2022-11-12T02:12:29.948Z,4.43
2022-11-12T02:14:57.822Z,3.67
2022-11-12T02:17:25.351Z,5.05
2022-11-12T02:19:53.172Z,4.35
2022-11-12T02:22:22.231Z,5.20
2022-11-12T02:24:49.701Z,4.45
2022-11-12T02:27:17.143Z,4.03
2022-11-12T02:29:47.160Z,4.30
2022-11-12T02:32:14.867Z,4.57
2022-11-12T02:34:42.306Z,3.88
2022-11-12T02:37:09.828Z,4.22
2022-11-12T02:39:38.653Z,4.35
2022-11-12T02:42:06.190Z,3.88
2022-11-12T02:44:33.822Z,4.15
2022-11-12T02:47:01.338Z,3.60
2022-11-12T02:49:28.753Z,4.22
2022-11-12T02:51:56.276Z,3.42
2022-11-12T02:54:23.821Z,4.13
2022-11-12T02:56:52.625Z,3.17
2022-11-12T02:59:20.199Z,3.53
2022-11-12T03:01:47.693Z,3.53
2022-11-12T03:04:15.134Z,3.95
2022-11-12T03:06:42.687Z,3.20
2022-11-12T03:09:11.786Z,2.83
2022-11-12T03:11:39.298Z,3.38
2022-11-12T03:14:08.195Z,3.72
2022-11-12T03:16:35.680Z,3.72
2022-11-12T03:19:03.168Z,3.83
2022-11-12T03:21:30.591Z,3.30
2022-11-12T03:23:58.076Z,3.22
2022-11-12T03:26:25.570Z,3.60
2022-11-12T03:28:53.126Z,3.50
2022-11-12T03:31:22.426Z,3.03
2022-11-12T03:33:49.858Z,3.28
2022-11-12T03:36:17.362Z,2.95
2022-11-12T03:38:44.858Z,3.00
2022-11-12T03:41:12.339Z,2.95
2022-11-12T03:43:39.827Z,3.08
2022-11-12T03:46:07.281Z,3.67
2022-11-12T03:48:36.131Z,3.22
2022-11-12T03:51:03.669Z,3.00
2022-11-12T03:53:31.225Z,3.50
2022-11-12T03:55:58.699Z,3.03
2022-11-12T03:58:26.567Z,2.75
2022-11-12T04:00:54.262Z,2.97
2022-11-12T04:03:21.780Z,3.38
2022-11-12T04:06:07.836Z,3.30
2022-11-12T04:08:37.965Z,3.17
2022-11-12T04:11:06.642Z,2.80
2022-11-12T04:13:34.209Z,2.80
2022-11-12T04:16:20.550Z,3.60
2022-11-12T04:19:06.221Z,3.25
2022-11-12T04:21:52.497Z,2.85
2022-11-12T04:24:38.305Z,3.22
2022-11-12T04:27:06.392Z,2.63
2022-11-12T04:29:51.550Z,2.70
2022-11-12T04:32:19.198Z,2.72
2022-11-12T04:34:46.765Z,2.97
2022-11-12T04:37:17.841Z,3.38
2022-11-12T04:39:48.534Z,2.92
2022-11-12T04:42:33.262Z,3.40
2022-11-12T04:45:01.276Z,4.13
2022-11-12T04:47:30.411Z,7.60
2022-11-12T04:49:58.061Z,5.13
2022-11-12T04:52:27.137Z,7.30
2022-11-12T04:54:54.652Z,6.43
2022-11-12T04:57:23.623Z,5.40
2022-11-12T04:59:51.131Z,5.32
2022-11-12T05:02:18.852Z,5.43
2022-11-12T05:04:46.331Z,5.18
2022-11-12T05:07:14.016Z,4.80
2022-11-12T05:09:42.873Z,5.35
2022-11-12T05:12:10.981Z,5.40
2022-11-12T05:14:38.482Z,4.68
2022-11-12T05:17:06.714Z,3.83
2022-11-12T05:19:35.055Z,5.30
2022-11-12T05:22:17.437Z,5.35
2022-11-12T05:24:56.242Z,5.53
2022-11-12T05:27:23.785Z,5.00
2022-11-12T05:29:51.296Z,5.00
2022-11-12T05:32:19.436Z,5.10
2022-11-12T05:34:46.943Z,5.50
2022-11-12T05:37:14.915Z,4.75
2022-11-12T05:39:42.411Z,4.47
2022-11-12T05:42:13.343Z,5.18
2022-11-12T05:44:41.759Z,4.70
2022-11-12T05:47:09.318Z,5.38
2022-11-12T05:49:36.778Z,5.43
2022-11-12T05:52:04.379Z,4.55
2022-11-12T05:54:31.879Z,5.25
2022-11-12T05:56:59.382Z,4.75
2022-11-12T05:59:28.240Z,4.65
2022-11-12T06:01:55.785Z,4.80
2022-11-12T06:04:23.290Z,4.93
2022-11-12T06:06:50.822Z,4.55
2022-11-12T06:09:18.286Z,4.40
2022-11-12T06:11:45.770Z,4.88
2022-11-12T06:14:13.311Z,4.70
2022-11-12T06:16:42.175Z,5.50
2022-11-12T06:19:09.764Z,4.68
2022-11-12T06:21:37.257Z,4.03
2022-11-12T06:24:05.265Z,3.75
2022-11-12T06:26:32.786Z,4.57
2022-11-12T06:29:00.262Z,3.92
2022-11-12T06:31:27.758Z,3.88
2022-11-12T06:33:56.691Z,3.70
2022-11-12T06:36:24.514Z,4.15
2022-11-12T06:38:51.970Z,4.93
2022-11-12T06:41:19.431Z,4.78
2022-11-12T06:43:46.914Z,4.13
2022-11-12T06:46:15.370Z,4.32
2022-11-12T06:48:43.098Z,4.25
2022-11-12T06:51:13.457Z,4.30
2022-11-12T06:53:40.886Z,4.68
2022-11-12T06:56:08.796Z,4.50
2022-11-12T06:58:36.682Z,4.35
2022-11-12T07:01:11.494Z,4.65
2022-11-12T07:03:39.805Z,4.43
2022-11-12T07:06:08.540Z,4.45
2022-11-12T07:08:37.465Z,5.18
2022-11-12T07:11:05.496Z,6.57
2022-11-12T07:13:33.698Z,4.57
2022-11-12T07:16:01.699Z,5.47
2022-11-12T07:18:29.857Z,5.95
2022-11-12T07:21:00.897Z,4.80
2022-11-12T07:23:28.528Z,4.32
2022-11-12T07:25:58.086Z,4.47
2022-11-12T07:28:25.967Z,5.30
2022-11-12T07:30:57.846Z,5.35
2022-11-12T07:33:25.737Z,6.38
2022-11-12T07:35:59.920Z,7.05
2022-11-12T07:38:28.457Z,6.82
2022-11-12T07:41:01.332Z,7.25
2022-11-12T07:43:29.058Z,7.35
2022-11-12T07:45:58.788Z,6.57
2022-11-12T07:48:26.595Z,7.53
2022-11-12T07:50:59.952Z,6.68
2022-11-12T07:53:27.434Z,7.20
2022-11-12T07:55:55.832Z,7.63
2022-11-12T07:58:25.055Z,8.15
2022-11-12T08:00:53.561Z,7.18
2022-11-12T08:03:21.120Z,7.75
2022-11-12T08:05:48.737Z,6.40
2022-11-12T08:08:16.257Z,5.82
2022-11-12T08:10:43.762Z,5.55
2022-11-12T08:13:11.557Z,6.00
2022-11-12T08:15:40.442Z,5.93
2022-11-12T08:18:07.979Z,5.22
2022-11-12T08:20:35.478Z,5.60
2022-11-12T08:23:03.008Z,5.72
2022-11-12T08:25:30.485Z,5.28
2022-11-12T08:27:58.986Z,5.68
2022-11-12T08:30:26.981Z,6.03
2022-11-12T08:33:00.009Z,5.85
2022-11-12T08:35:28.118Z,6.32
2022-11-12T08:37:58.517Z,6.70
2022-11-12T08:40:26.289Z,7.18
2022-11-12T08:42:57.963Z,6.18
2022-11-12T08:45:25.592Z,6.45
2022-11-12T08:47:53.059Z,6.00
2022-11-12T08:50:21.962Z,5.93
2022-11-12T08:52:49.590Z,6.85
2022-11-12T08:55:17.049Z,7.00
2022-11-12T08:57:44.878Z,6.50
2022-11-12T09:00:13.528Z,6.32
2022-11-12T09:02:41.042Z,7.03
2022-11-12T09:05:08.939Z,6.63
2022-11-12T09:07:53.286Z,5.93
2022-11-12T09:10:20.795Z,6.95
2022-11-12T09:12:51.422Z,5.57
2022-11-12T09:18:07.950Z,6.00
2022-11-12T09:20:35.444Z,5.57
2022-11-12T09:23:05.423Z,5.72
2022-11-12T09:25:32.998Z,5.40
2022-11-12T09:28:06.506Z,6.05
2022-11-12T09:30:34.019Z,5.68
2022-11-12T09:33:01.495Z,5.90
2022-11-12T09:35:28.990Z,5.53
2022-11-12T09:37:56.509Z,5.40
2022-11-12T09:40:27.501Z,5.70
2022-11-12T09:45:24.871Z,5.88
2022-11-12T09:47:55.005Z,6.30
2022-11-12T09:50:25.736Z,6.22
2022-11-12T09:52:57.482Z,5.65
2022-11-12T09:55:29.881Z,6.40
2022-11-12T09:57:57.500Z,6.20
2022-11-12T10:00:24.997Z,6.32
2022-11-12T10:02:54.904Z,6.28
2022-11-12T10:05:24.848Z,6.50
2022-11-12T10:07:57.306Z,6.55
2022-11-12T10:10:31.345Z,5.97
2022-11-12T10:13:07.989Z,6.70
2022-11-12T10:15:58.008Z,7.25
2022-11-12T10:18:30.660Z,6.22
2022-11-12T10:21:00.153Z,6.82
2022-11-12T10:23:29.208Z,6.78
2022-11-12T10:25:59.058Z,6.72
2022-11-12T10:28:34.248Z,6.18
2022-11-12T10:31:09.028Z,6.53
2022-11-12T10:33:36.536Z,6.57
2022-11-12T10:36:25.741Z,6.70
2022-11-12T10:38:54.456Z,5.97
2022-11-12T10:41:24.988Z,6.25
2022-11-12T10:43:58.342Z,7.38
2022-11-12T10:46:27.816Z,6.53
2022-11-12T10:48:57.358Z,6.57
2022-11-12T10:51:26.907Z,5.35
2022-11-12T10:53:54.426Z,5.82
2022-11-12T10:56:30.874Z,5.43
2022-11-12T10:59:10.196Z,5.82
2022-11-12T11:01:41.611Z,5.78
2022-11-12T11:04:23.561Z,5.03
2022-11-12T11:06:58.946Z,4.55
2022-11-12T11:09:27.091Z,3.75
2022-11-12T11:11:56.360Z,4.38
2022-11-12T11:14:28.368Z,3.95
2022-11-12T11:16:57.617Z,3.38
2022-11-12T11:19:29.711Z,3.53
2022-11-12T11:22:05.273Z,3.45
2022-11-12T11:24:37.554Z,3.80
2022-11-12T11:27:10.874Z,2.95
2022-11-12T11:29:43.121Z,3.40
2022-11-12T11:32:18.246Z,2.85
2022-11-12T11:34:50.502Z,2.30
2022-11-12T11:37:24.875Z,2.10
2022-11-12T11:39:55.775Z,2.75
2022-11-12T11:42:44.162Z,2.83
2022-11-12T11:45:16.974Z,2.65
2022-11-12T11:48:01.352Z,3.13
2022-11-12T11:50:30.476Z,3.10
2022-11-12T11:53:06.290Z,2.63
2022-11-12T11:55:38.013Z,2.33
2022-11-12T11:58:15.346Z,2.08
2022-11-12T12:00:47.040Z,2.58
2022-11-12T12:03:19.154Z,2.42
2022-11-12T12:05:51.463Z,2.80
2022-11-12T12:08:26.010Z,2.42
2022-11-12T12:11:08.658Z,2.45
2022-11-12T12:13:45.138Z,2.63
2022-11-12T12:16:30.534Z,2.92
2022-11-12T12:19:02.124Z,2.78
2022-11-12T12:21:31.883Z,3.13
2022-11-12T12:24:02.081Z,2.78
2022-11-12T12:26:34.256Z,3.33
2022-11-12T12:29:08.140Z,4.10
2022-11-12T12:31:37.426Z,4.32
2022-11-12T12:34:07.493Z,3.92
2022-11-12T12:36:36.562Z,4.05
2022-11-12T12:39:06.022Z,4.05
2022-11-12T12:41:38.280Z,4.00
2022-11-12T12:44:09.513Z,3.83
2022-11-12T12:46:40.441Z,3.97
2022-11-12T12:49:08.514Z,3.92
2022-11-12T12:51:36.085Z,3.95
2022-11-12T12:54:03.659Z,3.80
2022-11-12T12:56:44.706Z,3.88
2022-11-12T12:59:21.077Z,4.05
2022-11-12T13:01:55.488Z,4.40
2022-11-12T13:04:37.810Z,3.63
2022-11-12T13:07:09.917Z,3.45
2022-11-12T13:09:38.332Z,3.60
2022-11-12T13:12:24.070Z,3.20
2022-11-12T13:14:56.898Z,3.28
2022-11-12T13:17:39.203Z,3.47
2022-11-12T13:20:36.562Z,3.78
2022-11-12T13:23:04.718Z,3.05
2022-11-12T13:25:33.026Z,3.55
2022-11-12T13:28:10.906Z,3.53
2022-11-12T13:30:58.451Z,3.63
2022-11-12T13:33:29.592Z,3.10
2022-11-12T13:36:11.914Z,3.20
2022-11-12T13:38:39.698Z,2.80
2022-11-12T13:41:09.167Z,3.25
2022-11-12T13:43:38.289Z,3.55
2022-11-12T13:46:17.250Z,3.05
2022-11-12T13:48:47.401Z,2.60
2022-11-12T13:51:17.410Z,3.20
2022-11-12T13:53:45.205Z,3.03
2022-11-12T13:56:13.052Z,3.20
2022-11-12T13:58:40.820Z,3.33
2022-11-12T14:01:08.610Z,3.40
2022-11-12T14:03:42.143Z,3.33
2022-11-12T14:06:16.548Z,3.13
2022-11-12T14:08:59.338Z,3.70
2022-11-12T14:11:41.698Z,3.30
2022-11-12T14:14:13.471Z,3.00
2022-11-12T14:16:45.244Z,3.20
2022-11-12T14:19:31.845Z,3.15
2022-11-12T14:22:01.625Z,3.03
2022-11-12T14:24:29.285Z,2.92
2022-11-12T14:26:56.770Z,2.42
2022-11-12T14:29:24.304Z,3.38
2022-11-12T14:32:00.536Z,2.80
2022-11-12T14:34:28.733Z,2.92
2022-11-12T14:36:57.416Z,3.20
2022-11-12T14:39:28.097Z,2.80
2022-11-12T14:41:56.431Z,3.00
2022-11-12T14:44:24.774Z,3.40
2022-11-12T14:46:53.734Z,3.40
2022-11-12T14:49:23.756Z,3.72
2022-11-12T14:51:52.399Z,3.78
2022-11-12T14:54:24.414Z,3.42
2022-11-12T14:56:53.549Z,3.60
2022-11-12T14:59:21.243Z,3.92
2022-11-12T15:02:31.678Z,3.80
2022-11-12T15:04:55.775Z,3.17
2022-11-12T15:07:27.394Z,4.15
2022-11-12T15:09:55.017Z,3.60
2022-11-12T15:12:25.266Z,4.40
2022-11-12T15:14:53.186Z,4.55
2022-11-12T15:17:27.983Z,4.95
2022-11-12T15:20:01.216Z,4.47
2022-11-12T15:22:28.920Z,4.60
2022-11-12T15:24:56.504Z,4.50
2022-11-12T15:27:36.954Z,3.97
2022-11-12T15:30:18.014Z,3.95
2022-11-12T15:32:45.830Z,4.68
2022-11-12T15:35:32.949Z,4.63
2022-11-12T15:38:01.633Z,4.65
2022-11-12T15:40:29.588Z,5.50
2022-11-12T15:42:58.914Z,4.93
2022-11-12T15:45:26.386Z,6.35
2022-11-12T15:47:53.842Z,4.93
2022-11-12T15:50:22.677Z,4.93
2022-11-12T15:52:50.472Z,6.22
2022-11-12T15:55:18.753Z,6.65
2022-11-12T15:57:47.746Z,7.85
2022-11-12T16:00:18.062Z,7.75
2022-11-12T16:02:46.926Z,5.50
2022-11-12T16:05:14.962Z,6.78
2022-11-12T16:07:42.638Z,6.68
2022-11-12T16:10:13.938Z,6.03
2022-11-12T16:12:41.753Z,6.50
2022-11-12T16:15:13.394Z,5.95
2022-11-12T16:17:42.310Z,6.15
2022-11-12T16:20:13.739Z,7.30
2022-11-12T16:22:41.226Z,6.45
2022-11-12T16:25:08.919Z,6.80
2022-11-12T16:27:37.366Z,7.40
2022-11-12T16:30:05.348Z,6.60
2022-11-12T16:32:32.909Z,7.10
2022-11-12T16:35:01.778Z,6.70
2022-11-12T16:37:29.265Z,6.97
2022-11-12T16:39:56.779Z,9.18
2022-11-12T16:42:24.318Z,9.98
2022-11-12T16:44:51.757Z,7.82
2022-11-12T16:47:19.220Z,8.75
2022-11-12T16:49:46.725Z,13.68
2022-11-12T16:52:15.525Z,9.70
2022-11-12T16:54:42.967Z,8.18
2022-11-12T16:57:11.574Z,8.80
2022-11-12T16:59:39.005Z,9.48
2022-11-12T17:02:11.818Z,19.08
2022-11-12T17:04:39.289Z,12.68
2022-11-12T17:07:06.848Z,13.50
2022-11-12T17:09:35.822Z,11.98
2022-11-12T17:12:03.284Z,12.00
2022-11-12T17:14:30.767Z,12.20
2022-11-12T17:16:58.264Z,15.13
2022-11-12T17:19:25.902Z,9.98
2022-11-12T17:21:53.492Z,11.32
2022-11-12T17:24:20.991Z,12.45
2022-11-12T17:26:49.882Z,14.73
2022-11-12T17:29:17.694Z,12.82
2022-11-12T17:31:48.207Z,10.43
2022-11-12T17:34:15.874Z,11.73
2022-11-12T17:36:43.971Z,10.98
2022-11-12T17:39:12.347Z,10.18
2022-11-12T17:41:39.840Z,12.20
2022-11-12T17:44:08.671Z,11.82
2022-11-12T17:46:36.206Z,11.80
2022-11-12T17:49:03.852Z,11.15
2022-11-12T17:51:31.349Z,11.50
2022-11-12T17:53:58.810Z,10.27
2022-11-12T17:56:26.306Z,10.98
2022-11-12T17:58:53.853Z,15.10
2022-11-12T18:01:23.211Z,14.70
2022-11-12T18:03:51.945Z,13.57
2022-11-12T18:06:21.002Z,12.40
2022-11-12T18:08:48.961Z,11.35
2022-11-12T18:11:16.570Z,12.55
2022-11-12T18:13:44.170Z,12.35
2022-11-12T18:16:15.156Z,12.80
2022-11-12T18:18:44.026Z,12.98
2022-11-12T18:21:11.577Z,12.85
2022-11-12T18:23:39.781Z,13.27
2022-11-12T18:26:07.504Z,12.80
2022-11-12T18:28:35.252Z,11.70
2022-11-12T18:31:03.334Z,12.30
2022-11-12T18:33:31.402Z,12.65
2022-11-12T18:36:04.078Z,12.07
2022-11-12T18:38:32.967Z,12.57
2022-11-12T18:41:01.853Z,12.10
2022-11-12T18:43:29.775Z,11.55
2022-11-12T18:45:58.362Z,11.00
2022-11-12T18:48:26.105Z,11.68
2022-11-12T18:50:53.892Z,10.43
2022-11-12T18:53:22.843Z,11.68
2022-11-12T18:55:50.382Z,10.63
2022-11-12T18:58:17.859Z,12.00
2022-11-12T19:00:45.399Z,12.13
2022-11-12T19:03:12.857Z,12.13
2022-11-12T19:05:40.337Z,12.23
2022-11-12T19:08:08.036Z,12.07
2022-11-12T19:10:37.000Z,12.38
2022-11-12T19:13:05.184Z,12.43
2022-11-12T19:15:34.006Z,12.80
2022-11-12T19:18:01.761Z,12.35
2022-11-12T19:20:29.347Z,12.05
2022-11-12T19:22:56.868Z,13.50
2022-11-12T19:25:24.398Z,12.82
2022-11-12T19:27:54.282Z,13.07
2022-11-12T19:30:21.868Z,13.80
2022-11-12T19:32:49.321Z,12.80
2022-11-12T19:35:16.936Z,12.02
2022-11-12T19:37:44.425Z,14.52
2022-11-12T19:40:12.585Z,14.45
2022-11-12T19:42:40.165Z,15.40
2022-11-12T19:45:09.342Z,15.15
2022-11-12T19:47:36.931Z,16.02
2022-11-12T19:50:04.521Z,14.48
2022-11-12T19:52:32.053Z,17.95
2022-11-12T19:55:00.812Z,21.23
2022-11-12T19:57:29.100Z,19.20
2022-11-12T19:59:56.645Z,23.35
2022-11-12T20:02:25.511Z,25.15
2022-11-12T20:04:53.053Z,26.80
2022-11-12T20:07:20.540Z,24.73
2022-11-12T20:09:48.282Z,25.13
2022-11-12T20:12:15.708Z,23.00
2022-11-12T20:14:43.241Z,20.85
2022-11-12T20:17:10.683Z,22.27
2022-11-12T20:19:39.487Z,20.05
2022-11-12T20:22:06.976Z,20.08
2022-11-12T20:24:34.465Z,19.48
2022-11-12T20:27:01.991Z,18.60
2022-11-12T20:29:29.606Z,19.48
2022-11-12T20:31:57.122Z,18.55
2022-11-12T20:34:24.567Z,18.45
2022-11-12T20:36:54.938Z,18.95
2022-11-12T20:39:22.447Z,17.45
2022-11-12T20:41:49.969Z,17.15
2022-11-12T20:44:17.564Z,16.83
2022-11-12T20:46:45.975Z,17.13
2022-11-12T20:49:13.530Z,17.98
2022-11-12T20:51:41.067Z,18.23
2022-11-12T20:54:10.951Z,18.33
2022-11-12T20:56:38.501Z,17.80
2022-11-12T20:59:05.995Z,18.83
2022-11-12T21:01:33.848Z,18.42
2022-11-12T21:04:01.369Z,19.08
2022-11-12T21:06:29.431Z,19.30
2022-11-12T21:08:58.364Z,19.67
2022-11-12T21:11:27.303Z,17.58
2022-11-12T21:13:54.776Z,18.38
2022-11-12T21:16:22.302Z,19.92
2022-11-12T21:18:49.757Z,19.77
2022-11-12T21:21:18.398Z,18.40
2022-11-12T21:23:46.281Z,21.00
2022-11-12T21:26:14.487Z,21.75
2022-11-12T21:28:44.888Z,22.50
2022-11-12T21:31:13.142Z,22.42
2022-11-12T21:33:40.650Z,22.88
2022-11-12T21:36:13.203Z,22.98
2022-11-12T21:38:43.513Z,22.65
2022-11-12T21:41:12.363Z,22.83
2022-11-12T21:43:40.620Z,22.75
2022-11-12T21:46:09.976Z,21.63
2022-11-12T21:48:37.725Z,21.17
2022-11-12T21:51:06.189Z,20.85
2022-11-12T21:53:33.796Z,22.02
2022-11-12T21:56:04.510Z,22.88
2022-11-12T21:58:32.325Z,21.90
2022-11-12T22:01:06.828Z,22.60
2022-11-12T22:03:35.720Z,21.40
2022-11-12T22:06:03.458Z,22.52
2022-11-12T22:08:31.039Z,20.40
2022-11-12T22:11:01.916Z,22.02
2022-11-12T22:13:29.357Z,21.20
2022-11-12T22:15:56.966Z,21.50
2022-11-12T22:18:24.642Z,22.20
2022-11-12T22:21:00.189Z,22.83
2022-11-12T22:23:27.643Z,20.92
2022-11-12T22:25:58.135Z,20.50
2022-11-12T22:28:26.074Z,20.80
2022-11-12T22:30:54.199Z,22.35
2022-11-12T22:33:21.774Z,20.75
2022-11-12T22:35:49.245Z,20.92
2022-11-12T22:38:18.055Z,20.67
2022-11-12T22:40:45.624Z,18.80
2022-11-12T22:43:13.066Z,19.67
2022-11-12T22:45:40.506Z,19.90
2022-11-12T22:48:07.977Z,19.35
2022-11-12T22:50:35.544Z,19.02
2022-11-12T22:53:03.038Z,19.00
2022-11-12T22:55:31.890Z,18.42
2022-11-12T22:58:00.259Z,18.70
2022-11-12T23:00:29.597Z,18.25
2022-11-12T23:02:57.076Z,18.08
2022-11-12T23:05:24.635Z,17.85
2022-11-12T23:07:52.621Z,16.05
2022-11-12T23:10:20.133Z,15.80
2022-11-12T23:12:49.014Z,16.48
2022-11-12T23:15:16.533Z,15.45
2022-11-12T23:17:44.038Z,15.85
2022-11-12T23:20:11.913Z,15.50
2022-11-12T23:22:39.477Z,14.70
2022-11-12T23:25:07.661Z,14.40
2022-11-12T23:27:35.113Z,13.98
2022-11-12T23:30:04.595Z,13.80
2022-11-12T23:32:32.390Z,14.57
2022-11-12T23:34:59.861Z,14.80
2022-11-12T23:37:27.350Z,15.25
2022-11-12T23:39:54.856Z,13.27
2022-11-12T23:42:22.377Z,13.70
2022-11-12T23:44:49.872Z,13.82
2022-11-12T23:47:18.754Z,13.93
2022-11-12T23:49:46.307Z,15.02
2022-11-12T23:52:13.864Z,13.70
2022-11-12T23:54:41.329Z,11.88
2022-11-12T23:57:08.805Z,12.80
2022-11-12T23:59:36.356Z,12.90
